Terminal Aerodrome Forecast
Issued by NWS Charleston, WV

Current Version | Previous Version | Graphics & Text | Print | Product List | Glossary On
Versions: 1 2 3 4 5 6 7 8 9 10 11 12 13 14 15 16 17 18 19 20 21 22 23 24 25 26 27 28 29 30
183
FTUS41 KRLX 230255 AAA
TAFCRW
TAF AMD
KCRW 230255Z 2303/2324 00000KT 2SM BR BKN035
     FM231000 00000KT 3SM BR BKN035
     FM231400 23006KT P6SM BKN030
     FM231800 23006KT P6SM BKN035=

USA.gov is the U.S. government's official web portal to all federal, state and local government web resources and services.